createdAt,value
2019-02-26T00:00:23.958Z,38.50
2019-02-26T00:02:53.504Z,36.65
2019-02-26T00:05:23.870Z,37.70
2019-02-26T00:07:53.393Z,38.77
2019-02-26T00:10:26.581Z,39.89
2019-02-26T00:12:52.927Z,38.37
2019-02-26T00:15:21.193Z,37.92
2019-02-26T00:17:50.859Z,37.86
2019-02-26T00:20:19.456Z,41.26
2019-02-26T00:22:47.844Z,39.70
2019-02-26T00:25:17.980Z,38.22
2019-02-26T00:27:47.647Z,39.48
2019-02-26T00:30:18.495Z,39.38
2019-02-26T00:32:46.455Z,39.81
2019-02-26T00:35:15.970Z,39.52
2019-02-26T00:37:46.538Z,41.60
2019-02-26T00:40:17.164Z,38.37
2019-02-26T00:42:44.918Z,38.99
2019-02-26T00:45:16.166Z,39.42
2019-02-26T00:47:46.234Z,39.00
2019-02-26T00:50:16.649Z,39.23
2019-02-26T00:52:44.966Z,38.80
2019-02-26T00:55:13.410Z,37.86
2019-02-26T00:57:43.049Z,37.41
2019-02-26T01:00:16.061Z,38.95
2019-02-26T01:02:44.530Z,38.25
2019-02-26T01:05:15.719Z,38.96
2019-02-26T01:07:46.688Z,38.84
2019-02-26T01:10:16.302Z,38.83
2019-02-26T01:12:44.623Z,38.74
2019-02-26T01:15:17.625Z,38.34
2019-02-26T01:17:46.103Z,39.46
2019-02-26T01:20:19.711Z,39.17
2019-02-26T01:22:48.116Z,39.38
2019-02-26T01:25:18.506Z,38.50
2019-02-26T01:27:48.359Z,40.65
2019-02-26T01:30:21.251Z,39.71
2019-02-26T01:32:46.911Z,39.57
2019-02-26T01:35:15.213Z,39.52
2019-02-26T01:37:43.488Z,40.59
2019-02-26T01:40:15.787Z,39.26
2019-02-26T01:42:47.228Z,41.95
2019-02-26T01:45:13.712Z,43.83
2019-02-26T01:47:42.828Z,41.40
2019-02-26T01:50:13.980Z,40.29
2019-02-26T01:52:43.037Z,42.68
2019-02-26T01:55:12.014Z,41.21
2019-02-26T01:57:42.486Z,42.45
2019-02-26T02:00:15.993Z,42.49
2019-02-26T02:02:44.262Z,44.21
2019-02-26T02:05:12.705Z,41.48
2019-02-26T02:07:40.976Z,42.99
2019-02-26T02:10:14.260Z,40.50
2019-02-26T02:12:42.655Z,39.89
2019-02-26T02:15:15.811Z,40.19
2019-02-26T02:17:43.792Z,42.06
2019-02-26T02:20:16.477Z,43.79
2019-02-26T02:22:44.537Z,43.28
2019-02-26T02:25:13.236Z,44.00
2019-02-26T02:27:41.588Z,45.00
2019-02-26T02:30:22.505Z,43.40
2019-02-26T02:32:50.396Z,42.73
2019-02-26T02:35:18.494Z,43.51
2019-02-26T02:37:45.286Z,41.51
2019-02-26T02:40:14.266Z,43.90
2019-02-26T02:42:43.744Z,43.63
2019-02-26T02:45:16.691Z,43.05
2019-02-26T02:47:43.294Z,43.65
2019-02-26T02:50:15.184Z,44.01
2019-02-26T02:52:43.580Z,44.01
2019-02-26T02:55:13.856Z,42.55
2019-02-26T02:57:41.907Z,42.26
2019-02-26T03:00:13.573Z,41.06
2019-02-26T03:02:43.372Z,41.94
2019-02-26T03:05:12.953Z,40.67
2019-02-26T03:07:42.360Z,42.23
2019-02-26T03:10:16.688Z,43.00
2019-02-26T03:12:48.613Z,41.83
2019-02-26T03:15:17.360Z,41.36
2019-02-26T03:17:45.639Z,42.43
2019-02-26T03:20:15.587Z,43.22
2019-02-26T03:22:48.264Z,41.06
2019-02-26T03:25:17.684Z,41.71
2019-02-26T03:27:45.192Z,42.44
2019-02-26T03:30:26.455Z,41.76
2019-02-26T03:32:50.501Z,44.14
2019-02-26T03:35:19.213Z,45.59
2019-02-26T03:37:48.782Z,46.33
2019-02-26T03:40:16.641Z,43.67
2019-02-26T03:42:46.244Z,43.42
2019-02-26T03:45:23.893Z,43.90
2019-02-26T03:47:47.804Z,43.07
2019-02-26T03:50:16.557Z,42.93
2019-02-26T03:52:45.303Z,41.47
2019-02-26T03:55:15.487Z,42.68
2019-02-26T03:57:47.546Z,43.16
2019-02-26T04:00:20.511Z,42.05
2019-02-26T04:02:51.837Z,43.23
2019-02-26T04:05:19.355Z,41.96
2019-02-26T04:07:51.756Z,41.71
2019-02-26T04:10:17.697Z,41.77
2019-02-26T04:12:49.023Z,42.16
2019-02-26T04:15:19.475Z,41.91
2019-02-26T04:17:47.769Z,42.04
2019-02-26T04:20:16.627Z,43.66
2019-02-26T04:22:48.887Z,44.56
2019-02-26T04:25:25.659Z,44.82
2019-02-26T04:28:15.209Z,43.92
2019-02-26T04:30:50.308Z,44.50
2019-02-26T04:33:53.728Z,44.40
2019-02-26T04:36:27.886Z,43.58
2019-02-26T04:39:34.104Z,46.47
2019-02-26T04:42:17.740Z,45.61
2019-02-26T04:45:09.289Z,43.34
2019-02-26T04:47:58.384Z,41.67
2019-02-26T04:50:28.904Z,41.45
2019-02-26T04:52:59.761Z,45.03
2019-02-26T04:55:27.165Z,42.47
2019-02-26T04:57:57.066Z,43.95
2019-02-26T05:00:29.338Z,43.52
2019-02-26T05:02:55.339Z,43.92
2019-02-26T05:05:25.870Z,43.17
2019-02-26T05:07:53.678Z,44.50
2019-02-26T05:10:24.328Z,44.42
2019-02-26T05:12:56.175Z,43.45
2019-02-26T05:15:23.284Z,42.63
2019-02-26T05:17:52.072Z,42.72
2019-02-26T05:20:20.362Z,43.15
2019-02-26T05:22:48.658Z,43.28
2019-02-26T05:25:19.646Z,44.44
2019-02-26T05:27:48.812Z,44.87
2019-02-26T05:30:19.655Z,45.35
2019-02-26T05:32:46.976Z,43.55
2019-02-26T05:35:17.406Z,44.07
2019-02-26T05:37:45.305Z,44.30
2019-02-26T05:40:16.411Z,42.83
2019-02-26T05:42:43.691Z,43.95
2019-02-26T05:45:11.985Z,45.15
2019-02-26T05:47:42.865Z,45.43
2019-02-26T05:50:16.219Z,43.78
2019-02-26T05:52:40.322Z,43.67
2019-02-26T05:55:08.873Z,42.69
2019-02-26T05:57:37.145Z,44.10
2019-02-26T06:00:08.738Z,43.89
2019-02-26T06:02:40.131Z,42.28
2019-02-26T06:05:09.053Z,41.42
2019-02-26T06:07:38.809Z,41.84
2019-02-26T06:10:07.632Z,43.43
2019-02-26T06:12:38.225Z,43.57
2019-02-26T06:15:08.109Z,43.19
2019-02-26T06:17:40.578Z,42.41
2019-02-26T06:20:12.523Z,41.26
2019-02-26T06:22:40.830Z,41.58
2019-02-26T06:25:14.092Z,43.23
2019-02-26T06:27:39.180Z,43.32
2019-02-26T06:30:12.207Z,43.99
2019-02-26T06:32:42.640Z,45.09
2019-02-26T06:35:13.688Z,43.37
2019-02-26T06:37:42.924Z,43.35
2019-02-26T06:40:13.345Z,42.26
2019-02-26T06:42:41.611Z,42.10
2019-02-26T06:45:13.984Z,42.01
2019-02-26T06:47:42.404Z,41.77
2019-02-26T06:50:13.239Z,41.64
2019-02-26T06:52:42.994Z,42.38
2019-02-26T06:55:12.678Z,42.96
2019-02-26T06:57:41.432Z,43.78
2019-02-26T07:00:13.689Z,44.13
2019-02-26T07:02:45.501Z,45.00
2019-02-26T07:05:15.342Z,44.11
2019-02-26T07:07:43.597Z,43.80
2019-02-26T07:10:18.501Z,42.41
2019-02-26T07:12:48.043Z,43.50
2019-02-26T07:15:15.972Z,44.30
2019-02-26T07:17:45.874Z,44.30
2019-02-26T07:20:14.251Z,43.33
2019-02-26T07:22:44.053Z,43.79
2019-02-26T07:25:15.230Z,46.00
2019-02-26T07:27:42.547Z,44.13
2019-02-26T07:30:12.352Z,44.64
2019-02-26T07:32:41.224Z,44.63
2019-02-26T07:35:13.103Z,45.12
2019-02-26T07:37:40.792Z,45.28
2019-02-26T07:40:30.571Z,44.79
2019-02-26T07:42:59.834Z,44.68
2019-02-26T07:45:29.734Z,43.68
2019-02-26T07:47:59.090Z,45.43
2019-02-26T07:50:31.476Z,45.32
2019-02-26T07:52:59.434Z,45.21
2019-02-26T07:55:29.819Z,44.81
2019-02-26T07:57:57.816Z,45.92
2019-02-26T08:00:27.651Z,44.44
2019-02-26T08:02:57.853Z,44.56
2019-02-26T08:05:28.733Z,44.64
2019-02-26T08:07:56.613Z,44.74
2019-02-26T08:10:25.112Z,43.51
2019-02-26T08:12:53.397Z,44.02
2019-02-26T08:15:21.743Z,44.13
2019-02-26T08:17:51.226Z,43.30
2019-02-26T08:20:20.022Z,44.16
2019-02-26T08:22:49.537Z,42.53
2019-02-26T08:25:18.426Z,42.79
2019-02-26T08:27:46.690Z,42.28
2019-02-26T08:30:18.660Z,41.66
2019-02-26T08:32:51.119Z,42.08
2019-02-26T08:35:18.796Z,41.69
2019-02-26T08:37:46.213Z,41.59
2019-02-26T08:40:15.039Z,42.68
2019-02-26T08:42:43.298Z,41.95
2019-02-26T08:45:15.721Z,43.73
2019-02-26T08:47:44.591Z,42.70
2019-02-26T08:50:14.843Z,43.18
2019-02-26T08:52:44.901Z,42.77
2019-02-26T08:55:16.134Z,42.47
2019-02-26T08:57:44.601Z,42.12
2019-02-26T09:00:20.440Z,40.62
2019-02-26T09:02:53.569Z,41.20
2019-02-26T09:05:18.821Z,40.70
2019-02-26T09:07:50.129Z,40.99
2019-02-26T09:10:17.899Z,42.15
2019-02-26T09:12:49.067Z,41.90
2019-02-26T09:15:18.618Z,41.26
2019-02-26T09:17:46.931Z,41.19
2019-02-26T09:20:18.385Z,41.04
2019-02-26T09:22:50.290Z,40.72
2019-02-26T09:25:16.858Z,41.03
2019-02-26T09:27:45.167Z,40.83
2019-02-26T09:30:19.768Z,39.73
2019-02-26T09:32:48.113Z,39.20
2019-02-26T09:35:22.805Z,39.58
2019-02-26T09:37:52.019Z,39.30
2019-02-26T09:40:23.096Z,41.11
2019-02-26T09:42:52.325Z,38.75
2019-02-26T09:45:29.329Z,37.37
2019-02-26T09:47:57.989Z,36.73
2019-02-26T09:50:26.005Z,37.56
2019-02-26T09:52:56.626Z,37.08
2019-02-26T09:55:24.348Z,37.51
2019-02-26T09:57:52.671Z,37.39
2019-02-26T10:00:23.640Z,38.15
2019-02-26T10:02:52.271Z,37.19
2019-02-26T10:05:20.694Z,36.82
2019-02-26T10:07:51.139Z,38.11
2019-02-26T10:10:20.336Z,37.93
2019-02-26T10:12:48.616Z,37.96
2019-02-26T10:15:18.134Z,38.78
2019-02-26T10:17:46.407Z,37.29
2019-02-26T10:20:24.877Z,36.62
2019-02-26T10:22:54.774Z,37.99
2019-02-26T10:25:23.337Z,36.67
2019-02-26T10:27:52.517Z,34.58
2019-02-26T10:30:21.723Z,34.32
2019-02-26T10:32:50.011Z,34.25
2019-02-26T10:35:32.559Z,34.53
2019-02-26T10:38:02.602Z,33.43
2019-02-26T10:40:35.197Z,33.55
2019-02-26T10:42:59.276Z,33.69
2019-02-26T10:45:28.996Z,33.08
2019-02-26T10:48:00.951Z,32.92
2019-02-26T10:50:31.658Z,33.15
2019-02-26T10:53:06.563Z,32.92
2019-02-26T10:55:35.295Z,32.44
2019-02-26T10:57:58.600Z,31.64
2019-02-26T11:00:32.212Z,32.26
2019-02-26T11:02:59.931Z,32.86
2019-02-26T11:05:28.331Z,32.87
2019-02-26T11:07:59.708Z,32.38
2019-02-26T11:10:26.764Z,32.59
2019-02-26T11:12:58.625Z,32.52
2019-02-26T11:15:26.925Z,33.24
2019-02-26T11:17:55.933Z,34.57
2019-02-26T11:20:27.691Z,33.97
2019-02-26T11:23:00.663Z,34.11
2019-02-26T11:25:37.067Z,33.76
2019-02-26T11:28:07.446Z,33.66
2019-02-26T11:30:37.032Z,32.95
2019-02-26T11:33:08.053Z,33.47
2019-02-26T11:35:35.408Z,33.02
2019-02-26T11:38:03.740Z,32.94
2019-02-26T11:40:32.009Z,32.53
2019-02-26T11:43:10.920Z,31.68
2019-02-26T11:45:32.247Z,31.22
2019-02-26T11:48:01.072Z,30.24
2019-02-26T11:50:30.285Z,29.09
2019-02-26T11:52:58.814Z,28.87
2019-02-26T11:55:31.386Z,29.00
2019-02-26T11:57:57.079Z,28.87
2019-02-26T12:00:50.553Z,28.86
2019-02-26T12:03:22.767Z,28.02
2019-02-26T12:05:49.390Z,26.49
2019-02-26T12:08:21.843Z,25.46
2019-02-26T12:10:47.700Z,25.46
2019-02-26T12:13:17.105Z,24.95
2019-02-26T12:15:45.955Z,24.88
2019-02-26T12:18:15.417Z,25.41
2019-02-26T12:20:48.090Z,24.32
2019-02-26T12:23:16.268Z,23.55
2019-02-26T12:25:44.431Z,25.61
2019-02-26T12:28:13.771Z,25.28
2019-02-26T12:30:44.782Z,24.25
2019-02-26T12:33:14.344Z,24.04
2019-02-26T12:35:43.705Z,23.74
2019-02-26T12:38:18.034Z,23.15
2019-02-26T12:40:44.724Z,22.97
2019-02-26T12:43:15.515Z,23.75
2019-02-26T12:45:42.175Z,21.52
2019-02-26T12:48:13.308Z,22.25
2019-02-26T12:50:40.712Z,21.57
2019-02-26T12:53:12.728Z,21.89
2019-02-26T12:55:41.995Z,21.18
2019-02-26T12:58:10.618Z,20.53
2019-02-26T13:00:42.018Z,20.61
2019-02-26T13:03:12.343Z,19.73
2019-02-26T13:05:41.964Z,19.77
2019-02-26T13:08:10.584Z,19.52
2019-02-26T13:10:41.977Z,19.03
2019-02-26T13:13:09.138Z,18.50
2019-02-26T13:15:40.551Z,18.34
2019-02-26T13:18:08.901Z,18.20
2019-02-26T13:20:37.537Z,17.76
2019-02-26T13:23:17.098Z,19.18
2019-02-26T13:25:35.794Z,18.50
2019-02-26T13:28:04.169Z,18.25
2019-02-26T13:30:32.439Z,17.69
2019-02-26T13:33:04.239Z,17.90
2019-02-26T13:35:30.710Z,17.31
2019-02-26T13:38:03.490Z,17.59
2019-02-26T13:40:38.148Z,17.73
2019-02-26T13:45:30.252Z,17.17
2019-02-26T13:48:01.265Z,17.66
2019-02-26T13:50:29.723Z,17.53
2019-02-26T13:52:58.869Z,17.35
2019-02-26T13:55:27.960Z,17.37
2019-02-26T13:57:56.231Z,18.33
2019-02-26T14:00:26.728Z,19.15
2019-02-26T14:02:54.602Z,18.66
2019-02-26T14:05:22.949Z,18.89
2019-02-26T14:07:51.360Z,18.05
2019-02-26T14:10:23.990Z,18.28
2019-02-26T14:12:52.264Z,18.90
2019-02-26T14:15:25.016Z,18.51
2019-02-26T14:17:53.549Z,18.63
2019-02-26T14:20:21.908Z,16.94
2019-02-26T14:22:50.271Z,17.60
2019-02-26T14:25:18.609Z,17.36
2019-02-26T14:27:46.929Z,18.18
2019-02-26T14:30:19.761Z,17.02
2019-02-26T14:32:48.056Z,17.10
2019-02-26T14:35:16.441Z,17.77
2019-02-26T14:37:44.724Z,16.47
2019-02-26T14:40:14.436Z,16.83
2019-02-26T14:42:42.732Z,16.24
2019-02-26T14:45:19.967Z,17.03
2019-02-26T14:47:48.264Z,17.25
2019-02-26T14:50:23.165Z,16.62
2019-02-26T14:52:51.428Z,17.70
2019-02-26T14:55:19.936Z,17.42
2019-02-26T14:57:48.230Z,17.79
2019-02-26T15:00:27.701Z,16.64
2019-02-26T15:02:56.181Z,16.71
2019-02-26T15:05:24.633Z,18.01
2019-02-26T15:07:52.899Z,18.79
2019-02-26T15:10:21.266Z,18.79
2019-02-26T15:12:49.546Z,17.78
2019-02-26T15:15:18.673Z,18.09
2019-02-26T15:17:47.040Z,18.89
2019-02-26T15:20:23.699Z,19.64
2019-02-26T15:22:51.973Z,20.54
2019-02-26T15:25:28.597Z,22.07
2019-02-26T15:28:04.613Z,21.49
2019-02-26T15:30:26.962Z,21.89
2019-02-26T15:32:55.256Z,22.52
2019-02-26T15:35:23.829Z,22.81
2019-02-26T15:37:52.093Z,22.56
2019-02-26T15:40:21.426Z,22.55
2019-02-26T15:42:52.385Z,22.66
2019-02-26T15:45:24.036Z,23.28
2019-02-26T15:47:52.743Z,23.39
2019-02-26T15:50:21.546Z,24.35
2019-02-26T15:52:52.612Z,24.79
2019-02-26T15:55:30.918Z,24.42
2019-02-26T15:58:03.115Z,24.75
2019-02-26T16:00:29.360Z,24.50
2019-02-26T16:02:59.396Z,25.26
2019-02-26T16:05:32.872Z,25.21
2019-02-26T16:08:01.132Z,26.75
2019-02-26T16:10:34.763Z,25.23
2019-02-26T16:13:05.990Z,26.12
2019-02-26T16:15:38.861Z,24.33
2019-02-26T16:18:07.144Z,25.58
2019-02-26T16:20:35.452Z,25.25
2019-02-26T16:23:03.819Z,25.15
2019-02-26T16:25:32.128Z,26.06
2019-02-26T16:28:00.370Z,26.65
2019-02-26T16:30:29.259Z,26.26
2019-02-26T16:32:57.638Z,26.25
2019-02-26T16:35:25.912Z,26.36
2019-02-26T16:37:54.178Z,27.08
2019-02-26T16:40:22.525Z,27.52
2019-02-26T16:42:50.887Z,27.57
2019-02-26T16:45:21.374Z,27.15
2019-02-26T16:47:49.742Z,27.78
2019-02-26T16:50:23.059Z,26.93
2019-02-26T16:52:51.925Z,27.41
2019-02-26T16:55:20.830Z,27.67
2019-02-26T16:57:49.168Z,27.77
2019-02-26T17:00:30.828Z,27.98
2019-02-26T17:03:00.999Z,28.14
2019-02-26T17:05:29.514Z,29.20
2019-02-26T17:07:58.170Z,28.70
2019-02-26T17:10:30.337Z,28.05
2019-02-26T17:13:01.854Z,30.63
2019-02-26T17:15:31.122Z,30.19
2019-02-26T17:17:59.582Z,30.09
2019-02-26T17:20:28.005Z,30.49
2019-02-26T17:22:56.293Z,30.25
2019-02-26T17:25:27.443Z,30.91
2019-02-26T17:27:54.641Z,31.51
2019-02-26T17:30:23.893Z,31.31
2019-02-26T17:32:53.000Z,31.29
2019-02-26T17:35:21.311Z,31.11
2019-02-26T17:37:49.578Z,32.76
2019-02-26T17:40:22.029Z,31.90
2019-02-26T17:42:51.330Z,32.39
2019-02-26T17:45:25.756Z,32.07
2019-02-26T17:47:56.522Z,31.17
2019-02-26T17:50:31.408Z,31.58
2019-02-26T17:52:59.762Z,32.38
2019-02-26T17:55:28.045Z,31.52
2019-02-26T17:58:00.668Z,32.24
2019-02-26T18:00:31.864Z,32.73
2019-02-26T18:03:06.364Z,32.68
2019-02-26T18:05:31.852Z,35.25
2019-02-26T18:08:00.194Z,33.98
2019-02-26T18:10:28.452Z,33.51
2019-02-26T18:12:56.741Z,35.32
2019-02-26T18:15:25.090Z,34.24
2019-02-26T18:17:53.395Z,34.82
2019-02-26T18:20:22.781Z,34.33
2019-02-26T18:22:51.140Z,34.44
2019-02-26T18:25:20.942Z,36.79
2019-02-26T18:27:49.203Z,36.52
2019-02-26T18:30:32.790Z,36.56
2019-02-26T18:33:01.137Z,35.26
2019-02-26T18:35:29.423Z,35.23
2019-02-26T18:37:57.771Z,37.73
2019-02-26T18:40:28.348Z,38.53
2019-02-26T18:42:56.072Z,37.28
2019-02-26T18:45:31.394Z,34.93
2019-02-26T18:47:59.678Z,34.94
2019-02-26T18:50:29.535Z,36.81
2019-02-26T18:52:58.447Z,36.18
2019-02-26T18:55:28.438Z,36.61
2019-02-26T18:57:57.023Z,35.85
2019-02-26T19:00:33.747Z,35.37
2019-02-26T19:03:02.086Z,35.93
2019-02-26T19:05:30.447Z,37.85
2019-02-26T19:07:58.719Z,38.37
2019-02-26T19:10:26.989Z,36.30
2019-02-26T19:12:55.257Z,37.74
2019-02-26T19:15:25.954Z,39.38
2019-02-26T19:17:56.933Z,37.92
2019-02-26T19:20:27.898Z,37.72
2019-02-26T19:22:58.545Z,39.03
2019-02-26T19:25:26.205Z,40.31
2019-02-26T19:27:57.170Z,37.25
2019-02-26T19:30:25.461Z,37.89
2019-02-26T19:32:53.784Z,39.05
2019-02-26T19:35:22.064Z,39.05
2019-02-26T19:37:55.263Z,39.01
2019-02-26T19:40:41.554Z,39.86
2019-02-26T19:43:09.839Z,39.18
2019-02-26T19:45:38.109Z,37.13
2019-02-26T19:48:06.425Z,37.08
2019-02-26T19:50:34.743Z,37.58
2019-02-26T19:53:03.166Z,37.67
2019-02-26T19:55:34.185Z,37.31
2019-02-26T19:58:04.017Z,36.28
2019-02-26T20:00:32.565Z,37.36
2019-02-26T20:03:04.880Z,38.28
2019-02-26T20:05:30.848Z,39.78
2019-02-26T20:07:59.122Z,38.07
2019-02-26T20:10:27.439Z,37.57
2019-02-26T20:12:55.873Z,39.12
2019-02-26T20:15:24.151Z,39.79
2019-02-26T20:17:54.070Z,38.59
2019-02-26T20:20:22.632Z,40.75
2019-02-26T20:22:50.911Z,41.01
2019-02-26T20:25:20.321Z,41.38
2019-02-26T20:27:48.611Z,38.55
2019-02-26T20:30:19.595Z,38.97
2019-02-26T20:32:47.926Z,37.17
2019-02-26T20:35:16.233Z,38.39
2019-02-26T20:37:44.599Z,38.56
2019-02-26T20:40:18.831Z,41.27
2019-02-26T20:42:47.780Z,38.79
2019-02-26T20:45:18.899Z,40.50
2019-02-26T20:47:47.485Z,42.23
2019-02-26T20:50:23.390Z,41.55
2019-02-26T20:53:07.079Z,39.10
2019-02-26T20:55:35.618Z,39.14
2019-02-26T20:58:03.875Z,39.45
2019-02-26T21:00:32.150Z,39.00
2019-02-26T21:03:00.449Z,38.12
2019-02-26T21:05:28.759Z,39.49
2019-02-26T21:07:59.023Z,38.71
2019-02-26T21:10:27.300Z,41.98
2019-02-26T21:12:55.608Z,41.20
2019-02-26T21:15:26.601Z,40.34
2019-02-26T21:17:58.726Z,40.88
2019-02-26T21:20:28.239Z,40.75
2019-02-26T21:22:59.370Z,41.54
2019-02-26T21:25:27.727Z,41.68
2019-02-26T21:27:55.995Z,40.70
2019-02-26T21:30:27.071Z,40.54
2019-02-26T21:32:57.833Z,40.16
2019-02-26T21:35:25.338Z,40.03
2019-02-26T21:37:53.617Z,41.09
2019-02-26T21:40:21.887Z,42.21
2019-02-26T21:42:50.156Z,41.18
2019-02-26T21:45:18.892Z,44.04
2019-02-26T21:47:47.187Z,41.83
2019-02-26T21:50:16.183Z,42.46
2019-02-26T21:52:59.116Z,40.85
2019-02-26T21:55:15.558Z,41.69
2019-02-26T21:57:43.906Z,43.28
2019-02-26T22:00:22.649Z,42.33
2019-02-26T22:02:52.472Z,42.29
2019-02-26T22:05:20.912Z,39.64
2019-02-26T22:07:51.960Z,41.35
2019-02-26T22:10:20.525Z,42.72
2019-02-26T22:12:48.788Z,41.56
2019-02-26T22:15:17.588Z,41.60
2019-02-26T22:17:45.916Z,42.06
2019-02-26T22:20:22.075Z,42.46
2019-02-26T22:22:45.577Z,41.80
2019-02-26T22:25:17.050Z,42.54
2019-02-26T22:27:44.877Z,42.85
2019-02-26T22:30:15.730Z,43.42
2019-02-26T22:32:44.085Z,43.72
2019-02-26T22:35:12.446Z,41.17
2019-02-26T22:37:41.376Z,43.09
2019-02-26T22:40:14.483Z,44.56
2019-02-26T22:42:42.838Z,41.34
2019-02-26T22:45:15.101Z,44.77
2019-02-26T22:47:44.241Z,45.65
2019-02-26T22:50:17.175Z,42.48
2019-02-26T22:52:45.478Z,42.87
2019-02-26T22:55:17.351Z,43.09
2019-02-26T22:57:45.887Z,44.29
2019-02-26T23:00:51.028Z,43.71
2019-02-26T23:03:19.368Z,44.81
2019-02-26T23:05:47.706Z,42.24
2019-02-26T23:08:16.127Z,45.13
2019-02-26T23:10:44.464Z,44.86
2019-02-26T23:13:13.185Z,45.56
2019-02-26T23:15:45.153Z,47.34
2019-02-26T23:18:12.077Z,44.26
2019-02-26T23:20:42.487Z,43.28
2019-02-26T23:23:10.451Z,41.98
2019-02-26T23:25:39.086Z,41.61
2019-02-26T23:28:07.427Z,41.59
2019-02-26T23:30:35.720Z,42.16
2019-02-26T23:33:05.941Z,41.78
2019-02-26T23:35:34.290Z,41.15
2019-02-26T23:38:02.541Z,45.82
2019-02-26T23:40:30.816Z,47.00
2019-02-26T23:42:59.102Z,45.97
2019-02-26T23:45:27.373Z,43.09
2019-02-26T23:47:55.675Z,42.31
2019-02-26T23:50:23.946Z,43.36
2019-02-26T23:52:52.217Z,44.50
2019-02-26T23:55:20.505Z,44.58
2019-02-26T23:57:48.787Z,43.47
